sensor_id;sensor_type;location;lat;lon;timestamp;P1;durP1;ratioP1;P2;durP2;ratioP2
77310;SDS011;66371;52.714;5.074;2023-04-03T17:49:05;715.45;;;688.08;;
77310;SDS011;66371;52.714;5.074;2023-04-03T17:55:07;652.40;;;629.72;;
77310;SDS011;66371;52.714;5.074;2023-04-03T17:57:33;732.85;;;705.00;;
77310;SDS011;66371;52.714;5.074;2023-04-03T18:02:21;707.05;;;682.65;;
77310;SDS011;66371;52.714;5.074;2023-04-03T18:04:49;740.00;;;711.05;;
77310;SDS011;66371;52.714;5.074;2023-04-03T18:08:46;697.42;;;671.78;;
77310;SDS011;66371;52.714;5.074;2023-04-03T18:16:24;666.35;;;642.55;;
77310;SDS011;66371;52.714;5.074;2023-04-03T18:23:04;649.42;;;626.85;;
77310;SDS011;66371;52.714;5.074;2023-04-03T18:25:30;664.15;;;639.70;;
77310;SDS011;66371;52.714;5.074;2023-04-03T18:27:55;661.25;;;637.67;;
77310;SDS011;66371;52.714;5.074;2023-04-03T18:30:23;666.83;;;643.17;;
77310;SDS011;66371;52.714;5.074;2023-04-03T18:32:50;675.55;;;651.33;;
77310;SDS011;66371;52.714;5.074;2023-04-03T18:35:16;676.42;;;652.10;;
77310;SDS011;66371;52.714;5.074;2023-04-03T18:37:41;652.55;;;629.17;;
77310;SDS011;66371;52.714;5.074;2023-04-03T18:40:07;645.17;;;622.50;;
77310;SDS011;66371;52.714;5.074;2023-04-03T18:42:33;664.30;;;641.38;;
77310;SDS011;66371;52.714;5.074;2023-04-03T18:44:59;653.08;;;630.63;;
77310;SDS011;66371;52.714;5.074;2023-04-03T18:47:28;652.13;;;629.95;;
77310;SDS011;66371;52.714;5.074;2023-04-03T18:49:53;649.25;;;627.10;;
77310;SDS011;66371;52.714;5.074;2023-04-03T18:52:20;638.50;;;616.70;;
77310;SDS011;66371;52.714;5.074;2023-04-03T18:54:48;644.92;;;623.10;;
77310;SDS011;66371;52.714;5.074;2023-04-03T18:57:13;650.63;;;628.33;;
77310;SDS011;66371;52.714;5.074;2023-04-03T18:59:38;644.27;;;622.43;;
77310;SDS011;66371;52.714;5.074;2023-04-03T19:02:04;645.58;;;623.58;;
77310;SDS011;66371;52.714;5.074;2023-04-03T19:04:32;651.17;;;628.95;;
77310;SDS011;66371;52.714;5.074;2023-04-03T19:06:58;640.22;;;618.28;;
77310;SDS011;66371;52.714;5.074;2023-04-03T19:09:27;644.88;;;622.70;;
77310;SDS011;66371;52.714;5.074;2023-04-03T19:11:53;657.05;;;634.58;;
77310;SDS011;66371;52.714;5.074;2023-04-03T19:14:18;663.75;;;641.15;;
77310;SDS011;66371;52.714;5.074;2023-04-03T19:16:44;648.37;;;626.43;;
77310;SDS011;66371;52.714;5.074;2023-04-03T19:19:09;658.05;;;635.70;;
77310;SDS011;66371;52.714;5.074;2023-04-03T19:21:35;660.67;;;638.03;;
77310;SDS011;66371;52.714;5.074;2023-04-03T19:24:04;645.72;;;623.45;;
77310;SDS011;66371;52.714;5.074;2023-04-03T19:26:31;647.58;;;625.53;;
77310;SDS011;66371;52.714;5.074;2023-04-03T19:28:56;657.80;;;635.23;;
77310;SDS011;66371;52.714;5.074;2023-04-03T19:31:22;654.97;;;632.53;;
77310;SDS011;66371;52.714;5.074;2023-04-03T19:33:48;659.05;;;636.67;;
77310;SDS011;66371;52.714;5.074;2023-04-03T19:38:40;662.03;;;639.42;;
77310;SDS011;66371;52.714;5.074;2023-04-03T19:41:08;676.13;;;652.72;;
77310;SDS011;66371;52.714;5.074;2023-04-03T19:43:35;658.00;;;635.58;;
77310;SDS011;66371;52.714;5.074;2023-04-03T19:46:01;673.83;;;650.70;;
77310;SDS011;66371;52.714;5.074;2023-04-03T19:48:27;655.75;;;633.40;;
77310;SDS011;66371;52.714;5.074;2023-04-03T19:50:52;688.90;;;665.30;;
77310;SDS011;66371;52.714;5.074;2023-04-03T19:53:17;705.53;;;681.60;;
77310;SDS011;66371;52.714;5.074;2023-04-03T19:55:46;669.17;;;646.42;;
77310;SDS011;66371;52.714;5.074;2023-04-03T19:58:12;665.00;;;641.92;;
77310;SDS011;66371;52.714;5.074;2023-04-03T20:00:38;692.78;;;668.97;;
77310;SDS011;66371;52.714;5.074;2023-04-03T20:03:04;669.78;;;646.78;;
77310;SDS011;66371;52.714;5.074;2023-04-03T20:05:30;686.08;;;662.55;;
77310;SDS011;66371;52.714;5.074;2023-04-03T20:07:56;686.00;;;662.35;;
77310;SDS011;66371;52.714;5.074;2023-04-03T20:10:21;665.20;;;642.27;;
77310;SDS011;66371;52.714;5.074;2023-04-03T20:15:14;676.95;;;653.08;;
77310;SDS011;66371;52.714;5.074;2023-04-03T20:17:40;687.13;;;664.28;;
77310;SDS011;66371;52.714;5.074;2023-04-03T20:20:06;679.47;;;656.90;;
77310;SDS011;66371;52.714;5.074;2023-04-03T20:22:33;693.42;;;670.33;;
77310;SDS011;66371;52.714;5.074;2023-04-03T20:25:01;675.47;;;652.83;;
77310;SDS011;66371;52.714;5.074;2023-04-03T20:27:28;680.38;;;657.63;;
77310;SDS011;66371;52.714;5.074;2023-04-03T20:29:54;678.42;;;655.30;;
77310;SDS011;66371;52.714;5.074;2023-04-03T20:32:19;676.03;;;653.38;;
77310;SDS011;66371;52.714;5.074;2023-04-03T20:34:45;676.17;;;653.63;;
77310;SDS011;66371;52.714;5.074;2023-04-03T20:37:11;682.72;;;659.63;;
77310;SDS011;66371;52.714;5.074;2023-04-03T20:39:36;689.55;;;666.53;;
77310;SDS011;66371;52.714;5.074;2023-04-03T20:42:02;702.37;;;678.80;;
77310;SDS011;66371;52.714;5.074;2023-04-03T20:44:28;686.47;;;663.75;;
77310;SDS011;66371;52.714;5.074;2023-04-03T20:46:54;689.95;;;666.75;;
77310;SDS011;66371;52.714;5.074;2023-04-03T20:49:21;681.78;;;659.03;;
77310;SDS011;66371;52.714;5.074;2023-04-03T20:51:47;684.22;;;661.42;;
77310;SDS011;66371;52.714;5.074;2023-04-03T20:54:15;680.42;;;657.78;;
77310;SDS011;66371;52.714;5.074;2023-04-03T20:56:41;681.47;;;658.78;;
77310;SDS011;66371;52.714;5.074;2023-04-03T20:59:08;665.45;;;643.20;;
77310;SDS011;66371;52.714;5.074;2023-04-03T21:01:34;701.28;;;677.95;;
77310;SDS011;66371;52.714;5.074;2023-04-03T21:04:12;694.35;;;671.15;;
77310;SDS011;66371;52.714;5.074;2023-04-03T21:20:44;696.90;;;673.78;;
77310;SDS011;66371;52.714;5.074;2023-04-03T21:23:11;688.78;;;665.35;;
77310;SDS011;66371;52.714;5.074;2023-04-03T21:25:37;679.50;;;656.83;;
77310;SDS011;66371;52.714;5.074;2023-04-03T21:28:03;689.20;;;666.30;;
77310;SDS011;66371;52.714;5.074;2023-04-03T21:30:28;727.85;;;703.78;;
77310;SDS011;66371;52.714;5.074;2023-04-03T21:32:53;696.80;;;673.47;;
77310;SDS011;66371;52.714;5.074;2023-04-03T21:35:21;675.72;;;653.13;;
77310;SDS011;66371;52.714;5.074;2023-04-03T21:37:47;671.58;;;649.30;;
77310;SDS011;66371;52.714;5.074;2023-04-03T21:40:13;685.65;;;662.92;;
77310;SDS011;66371;52.714;5.074;2023-04-03T21:42:39;692.03;;;669.03;;
77310;SDS011;66371;52.714;5.074;2023-04-03T21:45:05;687.90;;;665.17;;
77310;SDS011;66371;52.714;5.074;2023-04-03T21:47:30;693.10;;;670.05;;
77310;SDS011;66371;52.714;5.074;2023-04-03T21:49:56;694.55;;;671.70;;
77310;SDS011;66371;52.714;5.074;2023-04-03T21:52:23;703.60;;;680.35;;
77310;SDS011;66371;52.714;5.074;2023-04-03T21:54:48;687.23;;;664.53;;
77310;SDS011;66371;52.714;5.074;2023-04-03T21:57:13;701.17;;;677.67;;
77310;SDS011;66371;52.714;5.074;2023-04-03T21:59:39;689.23;;;666.50;;
77310;SDS011;66371;52.714;5.074;2023-04-03T22:02:04;688.38;;;665.30;;
77310;SDS011;66371;52.714;5.074;2023-04-03T22:04:30;687.93;;;665.03;;
77310;SDS011;66371;52.714;5.074;2023-04-03T22:06:55;670.70;;;648.03;;
77310;SDS011;66371;52.714;5.074;2023-04-03T22:09:24;671.20;;;648.95;;
77310;SDS011;66371;52.714;5.074;2023-04-03T22:11:49;697.45;;;674.38;;
77310;SDS011;66371;52.714;5.074;2023-04-03T22:14:15;693.08;;;669.97;;
77310;SDS011;66371;52.714;5.074;2023-04-03T22:16:41;691.85;;;668.53;;
77310;SDS011;66371;52.714;5.074;2023-04-03T22:19:10;701.35;;;677.28;;
77310;SDS011;66371;52.714;5.074;2023-04-03T22:21:38;690.30;;;666.78;;
77310;SDS011;66371;52.714;5.074;2023-04-03T22:24:05;699.83;;;675.85;;
77310;SDS011;66371;52.714;5.074;2023-04-03T22:26:31;694.45;;;670.90;;
77310;SDS011;66371;52.714;5.074;2023-04-03T22:28:56;707.20;;;683.30;;
77310;SDS011;66371;52.714;5.074;2023-04-03T22:31:22;699.67;;;675.88;;
77310;SDS011;66371;52.714;5.074;2023-04-03T22:36:13;699.33;;;675.60;;
77310;SDS011;66371;52.714;5.074;2023-04-03T22:38:39;693.70;;;669.97;;
77310;SDS011;66371;52.714;5.074;2023-04-03T22:41:08;681.58;;;658.03;;
77310;SDS011;66371;52.714;5.074;2023-04-03T22:43:34;696.53;;;672.22;;
77310;SDS011;66371;52.714;5.074;2023-04-03T22:46:02;711.33;;;687.05;;
77310;SDS011;66371;52.714;5.074;2023-04-03T22:48:28;691.80;;;668.42;;
77310;SDS011;66371;52.714;5.074;2023-04-03T22:50:57;717.30;;;692.65;;
77310;SDS011;66371;52.714;5.074;2023-04-03T22:53:24;694.42;;;671.35;;
77310;SDS011;66371;52.714;5.074;2023-04-03T22:55:54;694.70;;;671.75;;
77310;SDS011;66371;52.714;5.074;2023-04-03T22:58:20;693.83;;;670.70;;
77310;SDS011;66371;52.714;5.074;2023-04-03T23:00:49;700.50;;;677.15;;
77310;SDS011;66371;52.714;5.074;2023-04-03T23:03:16;706.28;;;682.70;;
77310;SDS011;66371;52.714;5.074;2023-04-03T23:05:41;692.63;;;669.50;;
77310;SDS011;66371;52.714;5.074;2023-04-03T23:08:07;714.10;;;690.37;;
77310;SDS011;66371;52.714;5.074;2023-04-03T23:10:32;700.43;;;677.10;;
77310;SDS011;66371;52.714;5.074;2023-04-03T23:12:57;699.60;;;676.20;;
77310;SDS011;66371;52.714;5.074;2023-04-03T23:15:23;701.73;;;678.27;;
77310;SDS011;66371;52.714;5.074;2023-04-03T23:17:48;730.83;;;705.53;;
77310;SDS011;66371;52.714;5.074;2023-04-03T23:20:14;708.83;;;684.83;;
77310;SDS011;66371;52.714;5.074;2023-04-03T23:22:41;710.60;;;686.75;;
77310;SDS011;66371;52.714;5.074;2023-04-03T23:25:07;694.78;;;671.15;;
77310;SDS011;66371;52.714;5.074;2023-04-03T23:27:32;696.17;;;672.55;;
77310;SDS011;66371;52.714;5.074;2023-04-03T23:29:58;720.73;;;696.20;;
77310;SDS011;66371;52.714;5.074;2023-04-03T23:32:23;719.60;;;695.23;;
77310;SDS011;66371;52.714;5.074;2023-04-03T23:34:48;702.77;;;678.60;;
77310;SDS011;66371;52.714;5.074;2023-04-03T23:37:14;705.30;;;681.20;;
77310;SDS011;66371;52.714;5.074;2023-04-03T23:39:39;688.40;;;665.05;;
77310;SDS011;66371;52.714;5.074;2023-04-03T23:42:05;702.93;;;679.17;;
77310;SDS011;66371;52.714;5.074;2023-04-03T23:44:33;701.47;;;677.63;;
77310;SDS011;66371;52.714;5.074;2023-04-03T23:46:58;704.97;;;681.03;;
77310;SDS011;66371;52.714;5.074;2023-04-03T23:49:24;710.60;;;686.43;;
77310;SDS011;66371;52.714;5.074;2023-04-03T23:51:49;701.27;;;677.63;;
77310;SDS011;66371;52.714;5.074;2023-04-03T23:54:15;696.50;;;673.00;;
77310;SDS011;66371;52.714;5.074;2023-04-03T23:56:40;707.33;;;683.55;;
77310;SDS011;66371;52.714;5.074;2023-04-03T23:59:06;709.00;;;685.25;;
